ADDS METAR Data INFO
IDs: Format: Raw Decoded Include TAF

Data at: 0253 UTC 21 Oct 2017

KSNA 210216Z 20006KT 10SM SCT020 SCT025 BKN034 19/15 A2991 RMK AO2 T01890150
KSNA 210153Z 22005KT 10SM BKN023 BKN027 19/14 A2992 RMK AO2 SLP130 T01940144
KSNA 210053Z 25004KT 10SM BKN024 BKN028 BKN250 19/13 A2990 RMK AO2 SLP125 T01940133
KSNA 210019Z 24006KT 10SM FEW018 BKN022 BKN031 BKN250 20/14 A2990 RMK AO2 T02000139
KSNA 202353Z 21010KT 10SM FEW018 FEW022 BKN033 BKN250 20/14 A2990 RMK AO2 SLP123 T02000139 10228 20200 58006
KSNA 202253Z 22007KT 10SM FEW023 SCT034 SCT250 21/14 A2990 RMK AO2 SLP125 T02110144
KSNA 202153Z 26007KT 10SM FEW021 SCT033 BKN250 21/15 A2991 RMK AO2 SLP128 T02110150
KSNA 202053Z 27009KT 10SM SCT020 SCT030 BKN036 BKN250 21/16 A2992 RMK AO2 SLP129 T02110156 58013
KSNA 201953Z 22010G16KT 10SM SCT024 BKN033 BKN038 BKN250 22/14 A2993 RMK AO2 SLP132 T02170144
KSNA 201853Z 22008KT 10SM FEW022 SCT028 BKN038 BKN250 22/14 A2995 RMK AO2 SLP139 T02170139
KSNA 201753Z 24008KT 10SM SCT024 BKN031 BKN038 BKN250 21/14 A2995 RMK AO2 SLP141 T02110139 10211 20178 51006
KSNA 201739Z VRB06KT 10SM SCT024 BKN031 BKN038 BKN250 20/14 A2995 RMK AO2 T02000139
KSNA 201707Z VRB05KT 10SM SCT024 BKN029 BKN250 21/14 A2995 RMK AO2 T02060144
KSNA 201653Z 23008KT 10SM FEW023 BKN030 BKN250 20/14 A2994 RMK AO2 SLP138 T02000139
KSNA 201553Z 28008KT 10SM FEW025 SCT047 BKN250 19/13 A2995 RMK AO2 SLP141 T01940133
KSNA 201453Z 27005KT 10SM FEW028 BKN044 BKN250 19/14 A2993 RMK AO2 SLP135 T01890139 51013
KSNA 201353Z VRB05KT 9SM FEW026 SCT034 BKN250 18/13 A2993 RMK AO2 SLP133 T01830133
KSNA 201253Z 00000KT 10SM SCT028 18/16 A2992 RMK AO2 SLP130 T01830156
KSNA 201153Z AUTO 22007KT 10SM CLR 19/14 A2990 RMK AO2 SLP122 T01890144 10194 20178 55007
KSNA 201053Z AUTO 20009KT 10SM CLR 18/14 A2989 RMK AO2 SLP120 T01830144
KSNA 200953Z AUTO 18006KT 10SM CLR 19/16 A2990 RMK AO2 SLP125 T01890156
KSNA 200943Z AUTO 17004KT 10SM SCT025 18/16 A2991 RMK AO2 T01830161
KSNA 200853Z AUTO 13003KT 10SM BKN028 18/16 A2992 RMK AO2 SLP130 T01780161 50003
KSNA 200816Z AUTO 11003KT 10SM SCT018 SCT030 18/16 A2992 RMK AO2 T01830161
KSNA 200753Z AUTO 00000KT 10SM OVC017 18/16 A2993 RMK AO2 SLP134 T01830161 402330183
KSNA 200739Z AUTO 00000KT 10SM BKN017 18/16 A2993 RMK AO2 T01830161
KSNA 200653Z AUTO 00000KT 10SM CLR 19/16 A2992 RMK AO2 SLP132 T01890161
KSNA 200553Z 14004KT 10SM FEW020 FEW130 18/16 A2991 RMK AO2 SLP127 LAST T01830161 10217 20183 50007
KSNA 200453Z 13004KT 10SM FEW020 FEW130 19/17 A2992 RMK AO2 SLP130 T01890167
KSNA 200353Z 20005KT 10SM FEW130 FEW210 19/16 A2990 RMK AO2 SLP125 T01890161
KSNA 200253Z 21004KT 10SM FEW130 FEW210 19/17 A2989 RMK AO2 SLP120 T01940167 53008
KSNA 200153Z 22005KT 10SM FEW130 FEW210 20/17 A2987 RMK AO2 SLP114 T02000167
KSNA 200053Z 22004KT 9SM SCT130 21/17 A2986 RMK AO2 SLP110 T02060167
KSNA 192353Z 22005KT 10SM FEW020 SCT130 SCT210 22/17 A2987 RMK AO2 SLP112 T02170167 10233 20217 58002
KSNA 192253Z 21009KT 10SM SCT130 BKN210 22/17 A2988 RMK AO2 SLP116 T02170167
KSNA 192153Z 23008KT 10SM SCT130 BKN210 22/17 A2987 RMK AO2 SLP112 T02170167
KSNA 192053Z 22006KT 10SM SCT130 BKN210 22/16 A2987 RMK AO2 SLP114 T02220161 58016
KSNA 191953Z 20007KT 10SM SCT140 BKN210 23/16 A2989 RMK AO2 SLP120 T02280161
KSNA 191853Z 20006KT 10SM FEW025 BKN140 BKN240 23/16 A2992 RMK AO2 SLP129 T02280156
KSNA 191753Z 24003KT 10SM SCT025 BKN240 22/16 A2992 RMK AO2 SLP130 T02220156 10228 20194 50003
KSNA 191653Z 00000KT 10SM BKN024 BKN240 21/16 A2992 RMK AO2 SLP130 T02110156
KSNA 191553Z VRB04KT 10SM SCT021 BKN240 21/16 A2993 RMK AO2 SLP132 T02110161
KSNA 191532Z VRB03KT 10SM SCT021 BKN240 21/16 A2992 RMK AO2 T02060161